createdAt,value
2023-03-15T00:00:25.394Z,59.27
2023-03-15T00:02:52.466Z,59.15
2023-03-15T00:05:19.594Z,58.50
2023-03-15T00:07:47.977Z,59.36
2023-03-15T00:10:14.876Z,59.82
2023-03-15T00:12:42.750Z,59.78
2023-03-15T00:15:11.224Z,59.27
2023-03-15T00:17:38.134Z,60.22
2023-03-15T00:20:06.654Z,60.49
2023-03-15T00:22:33.578Z,59.77
2023-03-15T00:25:02.042Z,60.53
2023-03-15T00:27:29.000Z,60.29
2023-03-15T00:29:56.013Z,60.86
2023-03-15T00:32:23.088Z,59.98
2023-03-15T00:34:50.106Z,59.51
2023-03-15T00:37:17.322Z,59.31
2023-03-15T00:39:45.617Z,59.85
2023-03-15T00:42:17.421Z,60.79
2023-03-15T00:44:44.836Z,60.95
2023-03-15T00:47:12.871Z,59.46
2023-03-15T00:49:40.186Z,58.44
2023-03-15T00:52:07.888Z,58.58
2023-03-15T00:54:53.506Z,59.11
2023-03-15T00:57:22.340Z,58.43
2023-03-15T00:59:49.386Z,58.04
2023-03-15T01:02:16.418Z,58.37
2023-03-15T01:04:44.736Z,58.39
2023-03-15T01:07:12.233Z,59.48
2023-03-15T01:09:39.279Z,57.56
2023-03-15T01:12:06.632Z,57.66
2023-03-15T01:14:37.227Z,57.87
2023-03-15T01:17:04.163Z,57.62
2023-03-15T01:19:31.122Z,58.63
2023-03-15T01:21:58.100Z,58.91
2023-03-15T01:24:25.138Z,57.62
2023-03-15T01:26:52.082Z,58.64
2023-03-15T01:29:19.494Z,57.83
2023-03-15T01:31:47.906Z,57.69
2023-03-15T01:34:14.927Z,58.61
2023-03-15T01:36:41.872Z,58.00
2023-03-15T01:39:09.031Z,57.56
2023-03-15T01:41:41.530Z,57.83
2023-03-15T01:44:12.662Z,58.72
2023-03-15T01:46:39.705Z,57.84
2023-03-15T01:49:16.828Z,57.14
2023-03-15T01:51:47.184Z,58.87
2023-03-15T01:54:19.683Z,59.27
2023-03-15T01:56:52.672Z,59.35
2023-03-15T01:59:24.996Z,59.18
2023-03-15T02:01:54.546Z,59.08
2023-03-15T02:04:26.101Z,59.57
2023-03-15T02:06:59.177Z,59.73
2023-03-15T02:09:34.671Z,59.39
2023-03-15T02:12:01.987Z,59.44
2023-03-15T02:14:29.392Z,60.30
2023-03-15T02:16:57.250Z,60.36
2023-03-15T02:19:48.825Z,59.25
2023-03-15T02:22:26.297Z,58.97
2023-03-15T02:24:58.432Z,59.40
2023-03-15T02:27:29.378Z,59.12
2023-03-15T02:29:56.490Z,58.39
2023-03-15T02:32:23.567Z,58.28
2023-03-15T02:34:50.507Z,59.04
2023-03-15T02:37:17.412Z,59.67
2023-03-15T02:39:44.419Z,60.02
2023-03-15T02:42:12.945Z,59.65
2023-03-15T02:44:44.641Z,60.44
2023-03-15T02:47:16.570Z,59.98
2023-03-15T02:49:46.103Z,60.31
2023-03-15T02:52:14.126Z,60.14
2023-03-15T02:54:43.656Z,60.47
2023-03-15T02:57:11.249Z,60.55
2023-03-15T02:59:38.356Z,61.25
2023-03-15T03:02:07.894Z,61.49
2023-03-15T03:04:35.094Z,61.52
2023-03-15T03:07:02.113Z,62.06
2023-03-15T03:09:37.634Z,61.87
2023-03-15T03:12:05.500Z,62.72
2023-03-15T03:14:33.438Z,61.84
2023-03-15T03:17:01.912Z,63.09
2023-03-15T03:19:30.657Z,63.22
2023-03-15T03:21:57.627Z,62.98
2023-03-15T03:24:25.947Z,62.82
2023-03-15T03:26:58.081Z,62.57
2023-03-15T03:29:28.081Z,62.36
2023-03-15T03:31:57.509Z,61.54
2023-03-15T03:34:24.492Z,61.38
2023-03-15T03:36:52.979Z,62.51
2023-03-15T03:39:31.595Z,61.52
2023-03-15T03:42:01.014Z,61.76
2023-03-15T03:44:28.178Z,61.43
2023-03-15T03:46:55.130Z,62.16
2023-03-15T03:49:22.221Z,62.65
2023-03-15T03:51:49.227Z,62.62
2023-03-15T03:54:17.802Z,62.09
2023-03-15T03:56:44.854Z,62.59
2023-03-15T03:59:11.813Z,62.88
2023-03-15T04:01:48.558Z,62.72
2023-03-15T04:04:15.526Z,62.09
2023-03-15T04:06:45.929Z,61.95
2023-03-15T04:09:14.971Z,62.01
2023-03-15T04:11:45.417Z,62.84
2023-03-15T04:14:13.647Z,61.92
2023-03-15T04:16:42.078Z,61.55
2023-03-15T04:19:12.923Z,62.89
2023-03-15T04:21:47.624Z,61.83
2023-03-15T04:24:35.364Z,61.46
2023-03-15T04:27:26.950Z,62.24
2023-03-15T04:30:08.285Z,62.08
2023-03-15T04:32:59.068Z,61.43
2023-03-15T04:35:46.382Z,61.89
2023-03-15T04:38:46.534Z,61.82
2023-03-15T04:41:28.203Z,62.06
2023-03-15T04:44:22.067Z,62.19
2023-03-15T04:46:49.074Z,61.81
2023-03-15T04:49:27.083Z,61.63
2023-03-15T04:52:09.390Z,61.91
2023-03-15T04:54:49.692Z,62.19
2023-03-15T04:57:33.539Z,62.87
2023-03-15T05:00:15.472Z,62.17
2023-03-15T05:03:00.930Z,62.64
2023-03-15T05:05:45.622Z,62.26
2023-03-15T05:08:23.389Z,63.25
2023-03-15T05:11:12.952Z,63.67
2023-03-15T05:14:12.231Z,63.02
2023-03-15T05:16:59.693Z,62.97
2023-03-15T05:19:34.760Z,62.24
2023-03-15T05:22:02.247Z,61.41
2023-03-15T05:24:47.608Z,60.50
2023-03-15T05:27:24.429Z,61.44
2023-03-15T05:30:08.111Z,61.06
2023-03-15T05:32:45.026Z,61.65
2023-03-15T05:35:34.970Z,60.60
2023-03-15T05:38:26.952Z,61.81
2023-03-15T05:41:12.484Z,61.29
2023-03-15T05:43:46.889Z,61.22
2023-03-15T05:46:32.030Z,61.05
2023-03-15T05:49:19.266Z,60.35
2023-03-15T05:51:54.200Z,58.38
2023-03-15T05:54:41.497Z,58.47
2023-03-15T05:57:28.696Z,56.78
2023-03-15T06:00:15.323Z,57.91
2023-03-15T06:02:42.767Z,57.33
2023-03-15T06:05:39.665Z,55.39
2023-03-15T06:08:11.882Z,55.17
2023-03-15T06:10:42.343Z,53.68
2023-03-15T06:13:11.032Z,53.35
2023-03-15T06:15:38.265Z,53.09
2023-03-15T06:18:08.793Z,51.91
2023-03-15T06:20:35.983Z,51.40
2023-03-15T06:23:10.351Z,49.92
2023-03-15T06:25:45.521Z,50.28
2023-03-15T06:28:13.091Z,48.93
2023-03-15T06:30:45.175Z,49.22
2023-03-15T06:33:12.715Z,49.17
2023-03-15T06:35:40.053Z,46.87
2023-03-15T06:38:07.010Z,45.79
2023-03-15T06:40:35.285Z,47.22
2023-03-15T06:43:06.029Z,46.69
2023-03-15T06:45:33.906Z,46.06
2023-03-15T06:48:01.031Z,46.34
2023-03-15T06:50:37.269Z,45.82
2023-03-15T06:53:11.465Z,44.53
2023-03-15T06:55:39.847Z,44.41
2023-03-15T06:58:06.784Z,44.03
2023-03-15T07:00:33.710Z,45.03
2023-03-15T07:03:00.811Z,45.16
2023-03-15T07:05:27.903Z,45.17
2023-03-15T07:07:54.840Z,44.05
2023-03-15T07:10:21.783Z,44.54
2023-03-15T07:12:50.178Z,43.30
2023-03-15T07:15:17.698Z,42.72
2023-03-15T07:17:44.653Z,43.37
2023-03-15T07:20:12.434Z,43.14
2023-03-15T07:22:39.607Z,42.63
2023-03-15T07:25:07.652Z,41.33
2023-03-15T07:27:34.571Z,40.34
2023-03-15T07:30:03.177Z,39.92
2023-03-15T07:32:31.991Z,39.54
2023-03-15T07:35:00.666Z,39.35
2023-03-15T07:37:28.233Z,38.57
2023-03-15T07:39:55.641Z,37.14
2023-03-15T07:42:22.608Z,36.54
2023-03-15T07:44:52.317Z,37.74
2023-03-15T07:47:20.925Z,37.16
2023-03-15T07:49:47.916Z,35.72
2023-03-15T07:52:14.994Z,36.68
2023-03-15T07:54:42.082Z,35.07
2023-03-15T07:57:09.225Z,36.24
2023-03-15T07:59:36.304Z,35.67
2023-03-15T08:02:03.464Z,35.75
2023-03-15T08:04:31.886Z,36.01
2023-03-15T08:06:58.991Z,34.49
2023-03-15T08:09:25.920Z,35.13
2023-03-15T08:11:52.901Z,35.95
2023-03-15T08:14:19.926Z,35.70
2023-03-15T08:16:47.292Z,35.23
2023-03-15T08:19:14.323Z,35.14
2023-03-15T08:21:45.629Z,35.05
2023-03-15T08:24:12.869Z,33.59
2023-03-15T08:26:39.833Z,32.29
2023-03-15T08:29:06.827Z,34.39
2023-03-15T08:31:33.780Z,34.41
2023-03-15T08:34:00.959Z,32.94
2023-03-15T08:36:27.920Z,32.47
2023-03-15T08:38:56.338Z,32.25
2023-03-15T08:41:23.264Z,32.18
2023-03-15T08:43:50.267Z,32.59
2023-03-15T08:46:17.743Z,31.34
2023-03-15T08:48:44.776Z,31.19
2023-03-15T08:51:11.748Z,30.76
2023-03-15T08:53:38.719Z,31.02
2023-03-15T08:56:07.566Z,30.67
2023-03-15T08:58:34.706Z,30.45
2023-03-15T09:01:01.876Z,30.99
2023-03-15T09:03:28.977Z,31.51
2023-03-15T09:05:56.853Z,31.37
2023-03-15T09:08:25.315Z,31.46
2023-03-15T09:10:54.995Z,30.37
2023-03-15T09:13:23.701Z,31.85
2023-03-15T09:15:51.264Z,31.56
2023-03-15T09:18:18.551Z,32.57
2023-03-15T09:20:45.759Z,32.33
2023-03-15T09:23:13.232Z,32.38
2023-03-15T09:25:40.550Z,32.35
2023-03-15T09:28:09.139Z,32.64
2023-03-15T09:30:38.711Z,32.90
2023-03-15T09:33:05.756Z,31.92
2023-03-15T09:35:32.933Z,32.08
2023-03-15T09:38:00.714Z,32.85
2023-03-15T09:40:30.240Z,31.87
2023-03-15T09:43:02.635Z,31.58
2023-03-15T09:45:40.757Z,33.02
2023-03-15T09:48:10.210Z,32.06
2023-03-15T09:50:43.077Z,31.16
2023-03-15T09:53:14.266Z,32.77
2023-03-15T09:55:42.159Z,32.36
2023-03-15T09:58:12.021Z,31.33
2023-03-15T10:00:44.188Z,32.15
2023-03-15T10:03:18.583Z,33.29
2023-03-15T10:05:47.912Z,33.30
2023-03-15T10:08:17.521Z,33.45
2023-03-15T10:10:50.256Z,33.96
2023-03-15T10:13:24.977Z,32.66
2023-03-15T10:15:57.594Z,33.01
2023-03-15T10:18:43.041Z,33.36
2023-03-15T10:21:13.282Z,33.50
2023-03-15T10:23:45.664Z,34.83
2023-03-15T10:26:15.845Z,34.27
2023-03-15T10:28:44.233Z,34.85
2023-03-15T10:31:22.189Z,34.28
2023-03-15T10:33:57.558Z,34.10
2023-03-15T10:36:25.396Z,34.13
2023-03-15T10:38:52.544Z,33.45
2023-03-15T10:41:30.482Z,33.98
2023-03-15T10:44:00.368Z,34.54
2023-03-15T10:46:29.186Z,35.30
2023-03-15T10:49:00.770Z,34.85
2023-03-15T10:51:29.816Z,34.32
2023-03-15T10:53:59.929Z,34.54
2023-03-15T10:56:28.802Z,34.57
2023-03-15T10:59:11.434Z,34.56
2023-03-15T11:01:41.659Z,35.47
2023-03-15T11:04:17.848Z,35.55
2023-03-15T11:06:48.000Z,33.77
2023-03-15T11:09:16.854Z,34.90
2023-03-15T11:11:56.224Z,35.00
2023-03-15T11:14:23.439Z,34.43
2023-03-15T11:16:53.514Z,35.20
2023-03-15T11:19:22.505Z,34.74
2023-03-15T11:21:50.875Z,36.05
2023-03-15T11:24:23.664Z,34.74
2023-03-15T11:26:53.723Z,34.81
2023-03-15T11:29:23.957Z,34.44
2023-03-15T11:31:53.283Z,33.76
2023-03-15T11:34:26.847Z,34.90
2023-03-15T11:37:07.683Z,35.86
2023-03-15T11:39:39.319Z,34.56
2023-03-15T11:42:11.105Z,34.97
2023-03-15T11:44:40.515Z,34.99
2023-03-15T11:47:14.220Z,34.54
2023-03-15T11:49:46.772Z,34.58
2023-03-15T11:52:15.722Z,34.13
2023-03-15T11:54:44.016Z,33.84
2023-03-15T11:57:35.443Z,33.74
2023-03-15T12:00:27.035Z,33.23
2023-03-15T12:02:56.883Z,33.38
2023-03-15T12:05:44.066Z,34.49
2023-03-15T12:08:21.348Z,34.76
2023-03-15T12:10:49.842Z,33.68
2023-03-15T12:13:17.927Z,33.41
2023-03-15T12:15:47.417Z,33.59
2023-03-15T12:18:18.469Z,33.54
2023-03-15T12:20:51.047Z,33.01
2023-03-15T12:23:29.458Z,34.07
2023-03-15T12:25:58.018Z,33.37
2023-03-15T12:28:28.671Z,35.51
2023-03-15T12:30:57.231Z,36.97
2023-03-15T12:33:26.137Z,37.06
2023-03-15T12:35:59.878Z,36.30
2023-03-15T12:38:32.607Z,34.76
2023-03-15T12:40:59.625Z,35.68
2023-03-15T12:43:43.032Z,34.71
2023-03-15T12:46:48.722Z,35.36
2023-03-15T12:49:30.558Z,34.63
2023-03-15T12:51:59.817Z,35.40
2023-03-15T12:54:37.107Z,36.70
2023-03-15T12:57:05.246Z,37.74
2023-03-15T12:59:48.831Z,37.02
2023-03-15T13:02:41.802Z,37.21
2023-03-15T13:05:23.871Z,37.99
2023-03-15T13:07:58.303Z,37.71
2023-03-15T13:10:35.843Z,37.25
2023-03-15T13:13:10.873Z,36.71
2023-03-15T13:15:42.911Z,37.81
2023-03-15T13:18:17.840Z,37.24
2023-03-15T13:20:57.328Z,37.03
2023-03-15T13:23:27.898Z,36.98
2023-03-15T13:26:04.143Z,37.48
2023-03-15T13:28:37.377Z,37.89
2023-03-15T13:31:13.371Z,37.07
2023-03-15T13:33:40.578Z,36.15
2023-03-15T13:36:15.229Z,35.06
2023-03-15T13:38:43.434Z,35.02
2023-03-15T13:41:18.288Z,35.32
2023-03-15T13:43:45.576Z,35.66
2023-03-15T13:46:12.666Z,36.88
2023-03-15T13:48:42.005Z,36.25
2023-03-15T13:51:15.956Z,36.01
2023-03-15T13:53:49.757Z,36.25
2023-03-15T13:56:19.463Z,36.90
2023-03-15T13:58:46.863Z,35.41
2023-03-15T14:01:15.083Z,34.73
2023-03-15T14:03:43.995Z,35.79
2023-03-15T14:06:21.956Z,36.26
2023-03-15T14:08:49.793Z,36.78
2023-03-15T14:11:20.045Z,35.53
2023-03-15T14:13:49.095Z,36.23
2023-03-15T14:16:17.927Z,35.27
2023-03-15T14:18:45.029Z,34.63
2023-03-15T14:21:16.435Z,36.12
2023-03-15T14:23:45.386Z,36.03
2023-03-15T14:26:16.331Z,36.33
2023-03-15T14:28:48.447Z,35.76
2023-03-15T14:31:23.408Z,35.46
2023-03-15T14:33:56.463Z,35.68
2023-03-15T14:36:30.697Z,36.25
2023-03-15T14:38:58.906Z,34.98
2023-03-15T14:41:33.969Z,35.92
2023-03-15T14:44:01.225Z,35.48
2023-03-15T14:46:28.561Z,35.67
2023-03-15T14:48:58.405Z,35.59
2023-03-15T14:51:31.589Z,38.27
2023-03-15T14:53:59.670Z,37.35
2023-03-15T14:56:26.956Z,37.63
2023-03-15T14:58:56.635Z,36.13
2023-03-15T15:01:26.015Z,36.61
2023-03-15T15:03:55.484Z,37.69
2023-03-15T15:06:22.529Z,37.47
2023-03-15T15:08:53.387Z,36.24
2023-03-15T15:11:20.330Z,36.58
2023-03-15T15:13:47.285Z,36.12
2023-03-15T15:16:14.394Z,37.61
2023-03-15T15:18:41.346Z,37.92
2023-03-15T15:21:13.610Z,37.21
2023-03-15T15:23:56.914Z,37.24
2023-03-15T15:26:27.233Z,37.71
2023-03-15T15:28:54.445Z,37.46
2023-03-15T15:31:23.112Z,36.97
2023-03-15T15:33:50.563Z,37.43
2023-03-15T15:36:21.834Z,39.51
2023-03-15T15:38:48.777Z,40.25
2023-03-15T15:41:18.226Z,40.25
2023-03-15T15:43:46.500Z,40.73
2023-03-15T15:46:13.662Z,40.87
2023-03-15T15:48:41.874Z,40.52
2023-03-15T15:51:21.175Z,38.99
2023-03-15T15:53:48.401Z,39.20
2023-03-15T15:56:15.863Z,41.16
2023-03-15T15:58:43.407Z,39.52
2023-03-15T16:01:14.310Z,40.59
2023-03-15T16:03:41.835Z,40.81
2023-03-15T16:06:15.770Z,41.73
2023-03-15T16:08:42.856Z,41.90
2023-03-15T16:11:11.982Z,42.27
2023-03-15T16:13:38.977Z,41.97
2023-03-15T16:16:06.328Z,43.11
2023-03-15T16:18:34.746Z,42.77
2023-03-15T16:21:01.629Z,43.48
2023-03-15T16:23:28.583Z,43.90
2023-03-15T16:25:55.844Z,43.86
2023-03-15T16:28:23.077Z,44.82
2023-03-15T16:30:51.227Z,44.99
2023-03-15T16:33:20.143Z,44.16
2023-03-15T16:35:50.268Z,44.39
2023-03-15T16:38:24.514Z,45.10
2023-03-15T16:40:52.398Z,45.21
2023-03-15T16:43:19.608Z,46.52
2023-03-15T16:45:46.926Z,46.79
2023-03-15T16:48:14.462Z,46.86
2023-03-15T16:50:42.558Z,46.39
2023-03-15T16:53:13.182Z,46.58
2023-03-15T16:55:40.527Z,46.91
2023-03-15T16:58:15.362Z,47.76
2023-03-15T17:00:44.457Z,48.16
2023-03-15T17:03:12.742Z,47.76
2023-03-15T17:05:41.133Z,48.17
2023-03-15T17:08:12.887Z,49.92
2023-03-15T17:10:40.821Z,50.43
2023-03-15T17:13:07.711Z,52.04
2023-03-15T17:15:34.721Z,52.00
2023-03-15T17:18:02.794Z,52.81
2023-03-15T17:20:30.796Z,53.15
2023-03-15T17:23:03.958Z,53.71
2023-03-15T17:25:33.943Z,54.58
2023-03-15T17:28:01.351Z,54.60
2023-03-15T17:30:29.663Z,55.57
2023-03-15T17:32:56.853Z,55.90
2023-03-15T17:35:27.123Z,56.91
2023-03-15T17:37:54.200Z,56.28
2023-03-15T17:40:23.395Z,56.88
2023-03-15T17:42:52.732Z,57.18
2023-03-15T17:45:21.439Z,57.33
2023-03-15T17:47:48.827Z,57.21
2023-03-15T17:50:16.958Z,58.11
2023-03-15T17:52:44.432Z,58.82
2023-03-15T17:55:15.778Z,60.48
2023-03-15T17:57:45.757Z,60.68
2023-03-15T18:00:22.170Z,61.33
2023-03-15T18:02:55.745Z,61.93
2023-03-15T18:05:25.558Z,62.26
2023-03-15T18:08:00.531Z,63.16
2023-03-15T18:10:32.878Z,63.58
2023-03-15T18:12:59.867Z,64.59
2023-03-15T18:15:28.304Z,64.37
2023-03-15T18:17:55.244Z,64.70
2023-03-15T18:20:24.070Z,65.78
2023-03-15T18:22:51.471Z,64.92
2023-03-15T18:25:21.578Z,65.60
2023-03-15T18:27:49.255Z,65.20
2023-03-15T18:30:18.751Z,65.44
2023-03-15T18:32:47.744Z,65.43
2023-03-15T18:35:16.707Z,64.33
2023-03-15T18:37:43.713Z,64.50
2023-03-15T18:40:13.728Z,64.82
2023-03-15T18:42:40.993Z,64.78
2023-03-15T18:45:10.994Z,64.89
2023-03-15T18:47:38.112Z,65.47
2023-03-15T18:50:10.605Z,66.10
2023-03-15T18:52:37.958Z,65.56
2023-03-15T18:55:07.842Z,67.37
2023-03-15T18:57:34.817Z,67.34
2023-03-15T19:00:01.893Z,67.09
2023-03-15T19:02:28.970Z,67.44
2023-03-15T19:04:57.589Z,67.43
2023-03-15T19:07:27.726Z,67.50
2023-03-15T19:09:54.641Z,68.49
2023-03-15T19:12:21.918Z,68.00
2023-03-15T19:14:48.984Z,68.62
2023-03-15T19:17:17.539Z,69.03
2023-03-15T19:19:44.252Z,67.86
2023-03-15T19:22:11.163Z,68.25
2023-03-15T19:24:39.476Z,68.58
2023-03-15T19:27:06.536Z,69.23
2023-03-15T19:29:33.649Z,68.41
2023-03-15T19:32:01.121Z,68.25
2023-03-15T19:34:28.193Z,68.84
2023-03-15T19:36:55.149Z,69.13
2023-03-15T19:39:22.099Z,69.52
2023-03-15T19:41:50.593Z,70.41
2023-03-15T19:44:17.486Z,70.45
2023-03-15T19:46:45.434Z,70.99
2023-03-15T19:49:12.606Z,69.83
2023-03-15T19:51:39.636Z,70.11
2023-03-15T19:54:06.595Z,70.89
2023-03-15T19:56:33.953Z,70.17
2023-03-15T19:59:03.173Z,69.04
2023-03-15T20:01:30.330Z,69.21
2023-03-15T20:03:57.324Z,68.67
2023-03-15T20:06:24.430Z,68.06
2023-03-15T20:08:51.377Z,68.53
2023-03-15T20:11:25.084Z,68.26
2023-03-15T20:13:52.579Z,68.51
2023-03-15T20:16:21.856Z,68.65
2023-03-15T20:18:51.071Z,68.63
2023-03-15T20:21:18.397Z,69.04
2023-03-15T20:23:45.560Z,69.55
2023-03-15T20:26:14.035Z,70.38
2023-03-15T20:28:41.404Z,70.28
2023-03-15T20:31:09.500Z,69.20
2023-03-15T20:33:38.035Z,69.47
2023-03-15T20:36:05.255Z,69.12
2023-03-15T20:38:34.343Z,70.04
2023-03-15T20:41:01.416Z,69.57
2023-03-15T20:43:28.355Z,70.00
2023-03-15T20:45:56.160Z,71.03
2023-03-15T20:48:24.810Z,71.58
2023-03-15T20:50:53.017Z,71.99
2023-03-15T20:53:20.446Z,73.18
2023-03-15T20:55:47.552Z,73.50
2023-03-15T20:58:14.544Z,74.15
2023-03-15T21:00:43.133Z,73.72
2023-03-15T21:03:11.647Z,74.58
2023-03-15T21:05:40.328Z,76.04
2023-03-15T21:08:09.507Z,76.41
2023-03-15T21:10:36.940Z,80.51
2023-03-15T21:13:09.484Z,77.44
2023-03-15T21:15:45.801Z,76.07
2023-03-15T21:18:13.153Z,75.81
2023-03-15T21:20:40.264Z,75.98
2023-03-15T21:23:09.034Z,76.96
2023-03-15T21:25:36.374Z,76.86
2023-03-15T21:28:04.243Z,76.86
2023-03-15T21:30:31.429Z,77.88
2023-03-15T21:32:58.423Z,77.83
2023-03-15T21:35:26.251Z,77.92
2023-03-15T21:37:53.318Z,78.72
2023-03-15T21:40:21.880Z,78.93
2023-03-15T21:42:49.717Z,78.98
2023-03-15T21:45:16.936Z,83.50
2023-03-15T21:47:46.990Z,82.43
2023-03-15T21:50:14.069Z,80.29
2023-03-15T21:52:40.973Z,79.60
2023-03-15T21:55:09.120Z,77.50
2023-03-15T21:57:37.617Z,79.48
2023-03-15T22:00:11.768Z,78.47
2023-03-15T22:02:38.932Z,77.00
2023-03-15T22:05:06.234Z,73.16
2023-03-15T22:07:34.051Z,73.13
2023-03-15T22:10:00.986Z,75.06
2023-03-15T22:12:28.173Z,75.73
2023-03-15T22:15:05.373Z,76.28
2023-03-15T22:17:32.766Z,76.32
2023-03-15T22:19:59.680Z,76.51
2023-03-15T22:22:26.926Z,77.15
2023-03-15T22:24:53.883Z,77.25
2023-03-15T22:27:20.839Z,77.73
2023-03-15T22:29:47.776Z,78.36
2023-03-15T22:32:16.098Z,78.19
2023-03-15T22:34:46.821Z,78.03
2023-03-15T22:37:13.725Z,77.81
2023-03-15T22:39:43.069Z,78.55
2023-03-15T22:42:10.347Z,78.75
2023-03-15T22:44:37.275Z,77.91
2023-03-15T22:47:04.267Z,78.55
2023-03-15T22:49:32.608Z,78.30
2023-03-15T22:51:59.576Z,78.13
2023-03-15T22:54:26.461Z,78.41
2023-03-15T22:56:53.368Z,78.76
2023-03-15T22:59:20.488Z,78.93
2023-03-15T23:01:47.657Z,79.45
2023-03-15T23:04:14.605Z,79.03
2023-03-15T23:06:42.980Z,78.89
2023-03-15T23:09:10.757Z,77.94
2023-03-15T23:11:37.727Z,76.85
2023-03-15T23:14:04.757Z,77.65
2023-03-15T23:16:32.059Z,77.08
2023-03-15T23:18:59.162Z,76.99
2023-03-15T23:21:26.331Z,77.37
2023-03-15T23:23:54.693Z,77.71
2023-03-15T23:26:25.279Z,77.33
2023-03-15T23:28:52.360Z,76.61
2023-03-15T23:31:21.168Z,77.52
2023-03-15T23:33:48.172Z,77.52
2023-03-15T23:36:15.489Z,76.86
2023-03-15T23:38:42.485Z,77.74
2023-03-15T23:41:12.550Z,78.12
2023-03-15T23:43:39.574Z,78.28
2023-03-15T23:46:06.727Z,78.33
2023-03-15T23:48:35.277Z,78.70
2023-03-15T23:51:05.723Z,78.72
2023-03-15T23:53:32.814Z,79.08
2023-03-15T23:55:59.984Z,79.47
2023-03-15T23:58:28.524Z,79.77
